Time;durP1;ratioP1;P1;durP2;ratioP2;P2;SDS_P1;SDS_P2;PMS_P1;PMS_P2;Temp;Humidity;BMP_temperature;BMP_pressure;BME280_temperature;BME280_humidity;BME280_pressure;Samples;Min_cycle;Max_cycle;Signal;HPM_P1;HPM_P2
2021/06/29 00:02:32;;;;;;;9.00;8.10;;;;;;;17.43;100.00;155840.13;4940237;29;20467;-89
2021/06/29 00:05:10;;;;;;;10.00;9.10;;;;;;;17.44;100.00;155844.06;4940234;29;20431;-89
2021/06/29 00:07:45;;;;;;;9.43;8.63;;;;;;;17.39;100.00;155831.06;4939889;29;20447;-90
2021/06/29 00:10:22;;;;;;;10.60;9.60;;;;;;;17.42;100.00;155837.56;4937093;29;20444;-89
2021/06/29 00:12:58;;;;;;;9.23;8.33;;;;;;;17.39;100.00;155831.06;4938057;29;20483;-88
2021/06/29 00:15:35;;;;;;;12.50;9.50;;;;;;;17.42;100.00;155837.56;4922858;29;20451;-89
2021/06/29 00:18:11;;;;;;;10.70;9.70;;;;;;;17.47;100.00;155850.56;4947555;29;20451;-89
2021/06/29 00:20:46;;;;;;;10.47;9.47;;;;;;;17.45;100.00;155846.63;4939406;29;20486;-90
2021/06/29 00:23:22;;;;;;;9.80;8.33;;;;;;;17.52;100.00;155863.59;4923565;29;20824;-90
2021/06/29 00:25:57;;;;;;;8.40;7.60;;;;;;;17.42;100.00;155838.81;4936528;29;20912;-90
2021/06/29 00:28:33;;;;;;;9.50;8.60;;;;;;;17.39;100.00;155831.06;4937405;29;20417;-90
2021/06/29 00:31:10;;;;;;;9.03;8.13;;;;;;;17.42;100.00;155837.56;4937731;29;20445;-90
2021/06/29 00:33:45;;;;;;;8.80;7.93;;;;;;;17.41;100.00;155834.94;4933860;29;20460;-90
2021/06/29 00:36:21;;;;;;;9.17;8.37;;;;;;;17.36;100.00;155823.25;4939666;29;20451;-90
2021/06/29 00:38:56;;;;;;;8.90;7.17;;;;;;;17.39;100.00;155831.06;4924497;29;20435;-90
2021/06/29 00:41:32;;;;;;;8.57;7.83;;;;;;;17.41;100.00;155836.25;4956754;29;20459;-90
2021/06/29 00:44:19;;;;;;;7.70;7.00;;;;;;;17.36;100.00;155821.94;4956435;29;20481;-90
2021/06/29 00:46:57;;;;;;;8.13;7.40;;;;;;;17.40;100.00;155833.63;4956776;29;20467;-90
2021/06/29 00:49:33;;;;;;;7.27;6.63;;;;;;;17.38;100.00;155827.13;4938708;29;20467;-90
2021/06/29 00:52:12;;;;;;;8.33;7.63;;;;;;;17.36;100.00;155821.94;4939141;29;20938;-90
2021/06/29 00:54:47;;;;;;;7.23;6.57;;;;;;;17.36;100.00;155821.94;4955534;29;20444;-90
2021/06/29 00:57:22;;;;;;;8.17;7.37;;;;;;;17.43;100.00;155840.13;4939157;29;20866;-90
2021/06/29 00:59:58;;;;;;;7.57;6.87;;;;;;;17.41;100.00;155834.94;4938683;29;20447;-90
2021/06/29 01:02:35;;;;;;;8.27;6.90;;;;;;;17.36;100.00;155821.94;4939171;29;20824;-90
2021/06/29 01:05:12;;;;;;;7.60;6.90;;;;;;;17.38;100.00;155828.44;4916717;29;20447;-90
2021/06/29 01:07:48;;;;;;;8.57;7.67;;;;;;;17.39;100.00;155829.75;4955100;29;20411;-90
2021/06/29 01:10:24;;;;;;;7.73;6.93;;;;;;;17.36;100.00;155821.94;4925304;29;20862;-90
2021/06/29 01:12:59;;;;;;;7.70;7.00;;;;;;;17.36;100.00;155821.94;4935687;29;20448;-90
2021/06/29 01:15:35;;;;;;;7.10;6.40;;;;;;;17.36;100.00;155823.25;4938142;29;22047;-90
2021/06/29 01:18:12;;;;;;;7.93;7.17;;;;;;;17.36;100.00;155821.94;4938447;29;20446;-90
2021/06/29 01:20:49;;;;;;;8.40;7.60;;;;;;;17.34;100.00;155818.00;4938582;29;20582;-90
2021/06/29 01:23:27;;;;;;;7.57;6.97;;;;;;;17.30;100.00;155806.28;4938431;29;20943;-90
2021/06/29 01:26:09;;;;;;;7.90;7.20;;;;;;;17.31;100.00;155810.22;4956101;29;20503;-91
2021/06/29 01:28:52;;;;;;;7.60;6.90;;;;;;;17.32;100.00;155812.81;4938133;29;20432;-90
2021/06/29 01:31:27;;;;;;;7.20;6.60;;;;;;;17.31;100.00;155808.91;4938405;29;20447;-91
2021/06/29 01:34:04;;;;;;;6.80;6.20;;;;;;;17.27;100.00;155798.47;4955279;29;20533;-90
2021/06/29 01:36:41;;;;;;;6.00;5.40;;;;;;;17.27;100.00;155798.47;4951812;29;20479;-90
2021/06/29 01:39:17;;;;;;;6.07;5.57;;;;;;;17.32;100.00;155811.50;4936348;29;20424;-90
2021/06/29 01:41:52;;;;;;;6.47;5.97;;;;;;;17.35;100.00;155819.31;4919861;29;20487;-90
2021/06/29 01:44:30;;;;;;;5.93;5.43;;;;;;;17.32;100.00;155812.81;4935054;29;20818;-88
2021/06/29 01:47:10;;;;;;;6.37;5.77;;;;;;;17.32;100.00;155811.50;4919307;29;20971;-86
2021/06/29 01:49:46;;;;;;;6.40;5.80;;;;;;;17.35;100.00;155819.31;4948095;29;20526;-86
2021/06/29 01:52:22;;;;;;;6.97;6.30;;;;;;;17.19;100.00;155777.66;4919079;29;20452;-86
2021/06/29 01:54:58;;;;;;;6.67;6.07;;;;;;;17.11;100.00;155756.84;4943942;29;20442;-86
2021/06/29 01:57:35;;;;;;;6.40;5.83;;;;;;;17.07;100.00;155746.44;4938186;29;20432;-86
2021/06/29 02:00:13;;;;;;;7.13;6.47;;;;;;;17.02;100.00;155736.00;4937968;29;20514;-86
2021/06/29 02:02:49;;;;;;;6.30;5.70;;;;;;;16.99;100.00;155728.25;4937690;29;20439;-86
2021/06/29 02:05:24;;;;;;;6.87;6.27;;;;;;;16.93;100.00;155712.63;4937975;29;20851;-86
2021/06/29 02:08:01;;;;;;;10.13;8.30;;;;;;;17.00;100.00;155730.81;4938034;29;20485;-86
2021/06/29 02:10:37;;;;;;;6.70;6.10;;;;;;;17.09;100.00;155752.94;4955058;29;20467;-86
2021/06/29 02:13:13;;;;;;;6.90;6.30;;;;;;;17.04;100.00;155741.25;4937933;29;20506;-85
2021/06/29 02:15:48;;;;;;;6.87;6.17;;;;;;;17.00;100.00;155730.81;4925773;29;20553;-86
2021/06/29 02:18:24;;;;;;;7.47;6.30;;;;;;;16.97;100.00;155721.75;4906003;29;20448;-85
2021/06/29 02:21:00;;;;;;;9.13;6.87;;;;;;;17.02;100.00;155736.00;4928677;29;20859;-86
2021/06/29 02:23:37;;;;;;;8.40;7.43;;;;;;;17.01;100.00;155733.44;4959016;29;20427;-86
2021/06/29 02:26:12;;;;;;;17.30;6.90;;;;;;;16.94;100.00;155715.19;4959128;29;20532;-86
2021/06/29 02:28:48;;;;;;;7.33;6.60;;;;;;;16.95;100.00;155717.81;4941571;29;20434;-85
2021/06/29 02:31:23;;;;;;;7.17;6.47;;;;;;;16.88;100.00;155699.63;4940984;29;20486;-86
2021/06/29 02:33:59;;;;;;;7.80;7.00;;;;;;;16.87;100.00;155697.00;4941021;29;20442;-86
2021/06/29 02:36:34;;;;;;;7.10;5.97;;;;;;;16.90;100.00;155704.81;4924281;29;20464;-85
2021/06/29 02:39:11;;;;;;;6.33;5.57;;;;;;;16.99;100.00;155728.25;4938117;29;20452;-85
2021/06/29 02:41:46;;;;;;;5.87;5.33;;;;;;;16.98;100.00;155724.31;4945081;29;20549;-86
2021/06/29 02:44:23;;;;;;;5.83;5.33;;;;;;;16.98;100.00;155724.31;4958659;29;20778;-86
2021/06/29 02:46:58;;;;;;;7.03;5.80;;;;;;;16.89;100.00;155702.19;4926525;29;20474;-86
2021/06/29 02:49:34;;;;;;;7.50;6.80;;;;;;;16.90;100.00;155704.81;4940994;29;20442;-86
2021/06/29 02:52:10;;;;;;;6.87;6.17;;;;;;;16.91;100.00;155706.13;4959065;29;20830;-86
2021/06/29 02:54:46;;;;;;;7.60;6.37;;;;;;;16.95;100.00;155716.50;4941039;29;20450;-85
2021/06/29 02:57:22;;;;;;;6.67;5.90;;;;;;;16.93;100.00;155712.63;4941432;29;20447;-86
2021/06/29 02:59:57;;;;;;;6.30;5.70;;;;;;;16.95;100.00;155717.81;4940727;29;20446;-85
2021/06/29 03:02:33;;;;;;;6.53;5.93;;;;;;;16.97;100.00;155723.00;4924084;29;20942;-86
2021/06/29 03:05:10;;;;;;;6.53;5.83;;;;;;;16.99;100.00;155726.94;4957929;29;20443;-86
2021/06/29 03:07:45;;;;;;;6.63;6.03;;;;;;;17.01;100.00;155733.44;4919211;29;21091;-85
2021/06/29 03:10:22;;;;;;;6.13;5.53;;;;;;;16.98;100.00;155724.31;4941093;29;20439;-85
2021/06/29 03:12:58;;;;;;;6.10;5.50;;;;;;;16.91;100.00;155707.44;4958127;29;20419;-85
2021/06/29 03:15:34;;;;;;;5.77;5.27;;;;;;;16.95;100.00;155716.50;4940842;29;20456;-86
2021/06/29 03:18:09;;;;;;;6.67;6.10;;;;;;;16.92;100.00;155710.00;4957779;29;20420;-85
2021/06/29 03:20:44;;;;;;;6.53;5.93;;;;;;;16.94;100.00;155715.19;4940689;29;20483;-86
2021/06/29 03:23:20;;;;;;;6.50;5.70;;;;;;;16.93;100.00;155712.63;4957995;29;20424;-86
2021/06/29 03:25:57;;;;;;;6.30;5.80;;;;;;;16.92;100.00;155710.00;4940918;29;20451;-86
2021/06/29 03:28:33;;;;;;;10.07;6.90;;;;;;;16.92;100.00;155710.00;4940323;28;20914;-86
2021/06/29 03:31:08;;;;;;;9.90;8.40;;;;;;;16.75;100.00;155664.47;4939330;29;20459;-85
2021/06/29 03:33:44;;;;;;;7.83;7.10;;;;;;;16.78;100.00;155673.59;4940243;29;20795;-85
2021/06/29 03:36:19;;;;;;;7.70;7.00;;;;;;;16.79;100.00;155676.19;4939347;29;20553;-78
2021/06/29 03:38:55;;;;;;;7.83;7.13;;;;;;;16.82;100.00;155684.00;4938991;29;20443;-77
2021/06/29 03:41:38;;;;;;;7.40;6.80;;;;;;;16.86;100.00;155694.41;4939027;29;20871;-78
2021/06/29 03:44:13;;;;;;;7.50;6.80;;;;;;;16.85;100.00;155691.81;4939091;29;20459;-78
2021/06/29 03:46:49;;;;;;;9.53;7.97;;;;;;;16.84;100.00;155687.88;4938973;29;20479;-77
2021/06/29 03:49:24;;;;;;;7.00;6.40;;;;;;;16.87;100.00;155695.69;4923731;29;20447;-78
2021/06/29 03:52:01;;;;;;;6.20;5.60;;;;;;;16.91;100.00;155706.13;4938955;29;20455;-78
2021/06/29 03:54:36;;;;;;;6.33;5.83;;;;;;;16.91;100.00;155706.13;4938908;29;20447;-78
2021/06/29 03:57:13;;;;;;;6.57;5.97;;;;;;;16.88;100.00;155699.63;4939037;29;20903;-78
2021/06/29 03:59:48;;;;;;;6.40;5.10;;;;;;;16.92;100.00;155708.69;4941311;29;20459;-78
2021/06/29 04:02:24;;;;;;;5.70;5.20;;;;;;;16.89;100.00;155702.19;4920444;29;20459;-78
2021/06/29 04:05:00;;;;;;;5.97;5.47;;;;;;;16.89;100.00;155702.19;4948461;29;20530;-78
2021/06/29 04:07:36;;;;;;;6.47;5.43;;;;;;;16.88;100.00;155699.63;4938593;29;20475;-77
2021/06/29 04:10:12;;;;;;;6.93;6.23;;;;;;;16.91;100.00;155707.44;4938604;29;20451;-78
2021/06/29 04:12:49;;;;;;;5.53;5.10;;;;;;;16.93;100.00;155712.63;4955921;29;20436;-78
2021/06/29 04:15:24;;;;;;;9.80;6.00;;;;;;;16.88;100.00;155699.63;4937672;29;20444;-78
2021/06/29 04:18:00;;;;;;;6.53;5.70;;;;;;;16.94;100.00;155715.19;4938294;29;20447;-77
2021/06/29 04:20:35;;;;;;;6.77;6.17;;;;;;;16.94;100.00;155715.19;4938530;29;20491;-77
2021/06/29 04:23:11;;;;;;;8.00;6.40;;;;;;;16.98;100.00;155725.63;4938154;29;20451;-77
2021/06/29 04:25:47;;;;;;;7.90;7.10;;;;;;;16.78;100.00;155673.59;4938368;29;20784;-77
2021/06/29 04:28:24;;;;;;;8.50;7.70;;;;;;;16.71;100.00;155655.34;4938215;29;20471;-77
2021/06/29 04:30:59;;;;;;;10.10;6.70;;;;;;;16.47;100.00;155591.59;4938773;29;20455;-77
2021/06/29 04:33:35;;;;;;;8.80;7.90;;;;;;;16.35;100.00;155561.66;4955533;29;20833;-77
2021/06/29 04:36:10;;;;;;;9.97;9.00;;;;;;;16.32;100.00;155553.84;4934381;29;20466;-77
2021/06/29 04:38:46;;;;;;;11.07;10.07;;;;;;;16.30;100.00;155549.97;4904625;29;20801;-77
2021/06/29 04:41:22;;;;;;;10.83;9.20;;;;;;;16.34;100.00;155560.34;4948208;28;20488;-77
2021/06/29 04:43:58;;;;;;;9.93;8.93;;;;;;;16.36;100.00;155564.28;4938250;29;20532;-77
2021/06/29 04:46:34;;;;;;;9.90;9.00;;;;;;;16.48;100.00;155594.16;4937257;29;20462;-77
2021/06/29 04:49:09;;;;;;;9.80;8.90;;;;;;;16.62;100.00;155630.66;4927289;29;20454;-77
2021/06/29 04:51:45;;;;;;;9.03;8.17;;;;;;;16.66;100.00;155641.03;4936672;29;20448;-77
2021/06/29 04:54:21;;;;;;;8.23;7.53;;;;;;;16.76;100.00;155667.09;4919564;29;20443;-77
2021/06/29 04:56:56;;;;;;;8.47;7.77;;;;;;;16.81;100.00;155681.38;4937283;29;20798;-77
2021/06/29 04:59:33;;;;;;;7.20;6.50;;;;;;;16.80;100.00;155677.47;4948677;29;20490;-77
2021/06/29 05:02:08;;;;;;;7.70;6.90;;;;;;;16.87;100.00;155697.00;4950900;29;20456;-77
2021/06/29 05:04:44;;;;;;;7.50;6.77;;;;;;;16.83;100.00;155686.59;4955029;29;20450;-77
2021/06/29 05:07:19;;;;;;;7.10;6.50;;;;;;;16.83;100.00;155685.31;4937402;29;20582;-77
2021/06/29 05:09:55;;;;;;;7.60;6.90;;;;;;;16.88;100.00;155698.31;4938094;29;20451;-78
2021/06/29 05:12:30;;;;;;;7.77;7.00;;;;;;;16.94;100.00;155715.19;4938055;29;20451;-80
2021/06/29 05:15:11;;;;;;;6.50;5.90;;;;;;;16.96;100.00;155719.13;4938006;29;20447;-83
2021/06/29 05:17:48;;;;;;;6.87;5.90;;;;;;;16.97;100.00;155723.00;4937072;29;20794;-77
2021/06/29 05:20:24;;;;;;;8.50;7.80;;;;;;;17.02;100.00;155736.00;4947410;29;20575;-76
2021/06/29 05:23:00;;;;;;;7.47;6.70;;;;;;;17.01;100.00;155732.13;4943071;29;20455;-76
2021/06/29 05:25:36;;;;;;;10.20;8.07;;;;;;;17.03;100.00;155737.31;4937016;29;20469;-77
2021/06/29 05:28:12;;;;;;;9.20;7.90;;;;;;;17.02;100.00;155736.00;4934803;29;20475;-76
2021/06/29 05:30:50;;;;;;;8.60;7.00;;;;;;;17.08;100.00;155749.06;4950964;29;20451;-77
2021/06/29 05:33:25;;;;;;;8.53;7.63;;;;;;;17.01;100.00;155733.44;4941743;29;20453;-77
2021/06/29 05:36:01;;;;;;;8.13;7.33;;;;;;;17.00;100.00;155730.81;4936174;29;20451;-78
2021/06/29 05:38:36;;;;;;;8.97;8.10;;;;;;;16.98;100.00;155725.63;4936843;29;20546;-77
2021/06/29 05:41:12;;;;;;;8.27;7.57;;;;;;;17.01;100.00;155732.13;4954967;29;20483;-77
2021/06/29 05:43:47;;;;;;;7.93;7.23;;;;;;;17.10;100.00;155754.25;4925736;29;20480;-77
2021/06/29 05:46:24;;;;;;;8.40;7.60;;;;;;;17.10;100.00;155755.56;4934068;29;20451;-77
2021/06/29 05:49:02;;;;;;;7.10;6.40;;;;;;;17.10;100.00;155755.56;4950811;29;20475;-77
2021/06/29 05:51:38;;;;;;;7.40;6.70;;;;;;;17.13;100.00;155762.06;4935306;29;20623;-77
2021/06/29 05:54:13;;;;;;;8.33;7.00;;;;;;;17.15;100.00;155767.28;4917912;29;20447;-77
2021/06/29 05:56:48;;;;;;;8.90;6.70;;;;;;;17.22;100.00;155785.47;4934291;29;20455;-77
2021/06/29 05:59:24;;;;;;;7.10;6.50;;;;;;;17.27;100.00;155798.47;4949605;29;20459;-77
2021/06/29 06:02:01;;;;;;;6.87;6.10;;;;;;;17.25;100.00;155793.28;4953563;29;20459;-77
2021/06/29 06:04:37;;;;;;;6.87;6.27;;;;;;;17.26;100.00;155795.91;4949464;29;20455;-77
2021/06/29 06:07:12;;;;;;;7.33;6.73;;;;;;;17.26;100.00;155797.16;4933312;29;20480;-77
2021/06/29 06:09:47;;;;;;;10.27;6.57;;;;;;;17.26;100.00;155797.16;4931798;29;20832;-77
2021/06/29 06:12:23;;;;;;;7.30;6.70;;;;;;;17.34;100.00;155816.72;4922433;29;20455;-77
2021/06/29 06:14:59;;;;;;;5.60;5.10;;;;;;;17.33;100.00;155814.13;4936446;29;20447;-77
2021/06/29 06:17:37;;;;;;;6.20;5.60;;;;;;;17.36;100.00;155821.94;4933573;29;20443;-78
2021/06/29 06:20:13;;;;;;;5.97;5.47;;;;;;;17.44;100.00;155842.75;4933846;29;20476;-77
2021/06/29 06:22:48;;;;;;;6.30;5.57;;;;;;;17.49;100.00;155857.09;4919235;29;20476;-77
2021/06/29 06:25:24;;;;;;;7.40;5.77;;;;;;;17.63;100.00;155893.53;4933372;29;20456;-77
2021/06/29 06:27:59;;;;;;;6.30;5.80;;;;;;;17.76;100.00;155924.81;4935054;29;20464;-77
2021/06/29 06:30:37;;;;;;;7.20;6.50;;;;;;;17.99;100.00;155984.69;4934134;29;20456;-77
2021/06/29 06:33:14;;;;;;;7.97;5.23;;;;;;;18.35;100.00;156077.19;4933135;29;20452;-77
2021/06/29 06:35:50;;;;;;;5.80;5.30;;;;;;;18.97;100.00;156238.75;4933956;29;20460;-77
2021/06/29 06:38:25;;;;;;;5.70;5.20;;;;;;;19.41;100.00;156353.47;4934018;29;20471;-77
2021/06/29 06:41:02;;;;;;;5.03;4.63;;;;;;;19.72;100.00;156433.03;4933574;29;20456;-75
2021/06/29 06:43:37;;;;;;;4.73;4.17;;;;;;;20.32;100.00;156588.25;4931152;29;20468;-75
2021/06/29 06:46:13;;;;;;;4.23;3.83;;;;;;;20.97;95.37;156756.50;4929414;29;20455;-75
2021/06/29 06:48:50;;;;;;;4.17;3.77;;;;;;;21.57;92.91;156910.59;4931625;29;20468;-75
2021/06/29 06:51:25;;;;;;;5.07;4.43;;;;;;;22.15;90.99;157060.78;4935316;29;20526;-75
2021/06/29 06:54:00;;;;;;;3.90;3.60;;;;;;;22.65;91.80;157191.47;4914511;29;20456;-77
2021/06/29 06:56:36;;;;;;;4.33;3.80;;;;;;;22.95;88.80;157268.56;4921147;29;20448;-77
2021/06/29 06:59:11;;;;;;;4.33;3.93;;;;;;;23.35;86.68;157371.78;4932565;29;20955;-78
2021/06/29 07:01:48;;;;;;;4.93;4.43;;;;;;;23.68;86.48;157458.09;4927191;29;20494;-86
2021/06/29 07:04:25;;;;;;;3.87;3.47;;;;;;;24.01;83.60;157544.34;4918793;29;20441;-77
2021/06/29 07:07:01;;;;;;;4.30;3.20;;;;;;;24.49;84.36;157667.38;4934075;29;20788;-77
2021/06/29 07:09:36;;;;;;;3.30;3.00;;;;;;;24.82;79.43;157753.75;4918151;29;20433;-77
2021/06/29 07:12:12;;;;;;;5.00;3.27;;;;;;;25.02;75.28;157806.06;4908651;29;20456;-77
2021/06/29 07:14:48;;;;;;;3.37;3.07;;;;;;;25.11;72.35;157829.63;4935645;29;21018;-77
2021/06/29 07:17:24;;;;;;;3.30;3.00;;;;;;;24.97;74.69;157791.66;4935867;29;20459;-77
2021/06/29 07:20:00;;;;;;;2.70;2.50;;;;;;;25.37;73.32;157897.69;4933959;29;20487;-77
2021/06/29 07:22:36;;;;;;;2.83;2.63;;;;;;;25.84;68.72;158018.19;4954989;29;20440;-78
2021/06/29 07:25:12;;;;;;;2.80;2.50;;;;;;;25.89;69.28;158031.25;4937620;29;20444;-78
2021/06/29 07:27:48;;;;;;;2.60;2.30;;;;;;;25.91;64.60;158036.50;4940429;29;20480;-78
2021/06/29 07:30:23;;;;;;;2.37;2.17;;;;;;;26.45;60.88;158176.66;4932913;29;20835;-78
2021/06/29 07:32:59;;;;;;;2.33;2.13;;;;;;;26.50;63.37;158191.03;4939204;29;20447;-78
2021/06/29 07:35:36;;;;;;;2.63;2.23;;;;;;;26.71;62.65;158244.78;4937960;29;20772;-78
2021/06/29 07:38:12;;;;;;;2.97;2.40;;;;;;;26.94;62.58;158303.75;4939119;29;20451;-78
2021/06/29 07:40:47;;;;;;;3.03;2.83;;;;;;;27.02;61.26;158326.03;4940682;29;20439;-77
2021/06/29 07:43:23;;;;;;;3.17;2.50;;;;;;;27.22;56.48;158377.09;4920367;29;20444;-77
2021/06/29 07:46:10;;;;;;;1.83;1.73;;;;;;;27.25;55.75;158384.97;4930576;29;20530;-77
2021/06/29 07:48:46;;;;;;;2.10;2.00;;;;;;;26.95;54.44;158306.38;4934583;29;20476;-77
2021/06/29 07:51:23;;;;;;;1.90;1.80;;;;;;;27.26;53.48;158387.59;4946070;29;20455;-77
2021/06/29 07:53:58;;;;;;;1.80;1.70;;;;;;;27.27;53.16;158390.19;4938659;29;20451;-77
2021/06/29 07:56:37;;;;;;;3.50;1.90;;;;;;;27.37;52.13;158415.13;4952277;28;20850;-77
2021/06/29 07:59:13;;;;;;;2.20;2.00;;;;;;;27.69;52.62;158500.31;4935118;29;20439;-77
2021/06/29 08:01:49;;;;;;;2.10;1.70;;;;;;;27.22;51.47;158375.81;4955320;29;20978;-77
2021/06/29 08:04:24;;;;;;;2.63;1.80;;;;;;;27.76;51.31;158518.72;4949093;29;20448;-77
2021/06/29 08:07:01;;;;;;;1.90;1.70;;;;;;;27.65;50.84;158489.88;4948261;28;20519;-77
2021/06/29 08:09:37;;;;;;;2.73;2.00;;;;;;;27.61;50.74;158478.09;4955734;29;20799;-77
2021/06/29 08:12:12;;;;;;;2.93;1.60;;;;;;;27.86;55.65;158542.28;4938911;29;20491;-77
2021/06/29 08:14:48;;;;;;;3.97;2.07;;;;;;;28.07;50.44;158597.38;4937437;29;20546;-77
2021/06/29 08:17:23;;;;;;;1.90;1.80;;;;;;;28.43;52.58;158690.50;4920613;29;20959;-77
2021/06/29 08:19:59;;;;;;;2.17;1.97;;;;;;;28.68;51.50;158756.09;4941861;29;20513;-78
2021/06/29 08:22:36;;;;;;;3.00;2.47;;;;;;;28.25;50.08;158644.63;4949179;29;20478;-77
2021/06/29 08:25:12;;;;;;;2.30;2.10;;;;;;;28.87;51.51;158807.25;4938289;29;20447;-77
2021/06/29 08:27:48;;;;;;;3.43;2.40;;;;;;;29.43;51.22;158951.63;4938624;29;20467;-78
2021/06/29 08:30:24;;;;;;;1.97;1.87;;;;;;;29.38;49.21;158938.50;4937407;29;20855;-78
2021/06/29 08:32:59;;;;;;;1.90;1.80;;;;;;;29.72;47.91;159027.72;4938162;29;20435;-78
2021/06/29 08:35:35;;;;;;;2.13;1.93;;;;;;;29.26;48.17;158906.97;4946620;29;20468;-78
2021/06/29 08:38:12;;;;;;;2.33;2.17;;;;;;;29.68;49.61;159017.19;4938282;29;20459;-78
2021/06/29 08:40:48;;;;;;;2.30;2.10;;;;;;;30.03;47.77;159109.13;4937062;29;20463;-76
2021/06/29 08:43:24;;;;;;;2.37;2.07;;;;;;;30.03;46.81;159107.81;4934107;29;20452;-75
2021/06/29 08:46:01;;;;;;;1.97;1.83;;;;;;;29.77;49.50;159040.84;4955890;29;20443;-75
2021/06/29 08:48:38;;;;;;;2.43;2.23;;;;;;;28.96;49.23;158830.84;4938080;29;20467;-75
2021/06/29 08:51:14;;;;;;;2.43;2.23;;;;;;;28.99;48.59;158838.72;4937920;29;20529;-75
2021/06/29 08:53:51;;;;;;;2.77;2.53;;;;;;;29.63;49.53;159004.09;4937462;29;20472;-75
2021/06/29 08:56:26;;;;;;;2.63;2.43;;;;;;;29.45;50.60;158958.16;4938636;29;20785;-78
2021/06/29 08:59:02;;;;;;;4.60;2.60;;;;;;;29.51;47.32;158973.94;4942111;29;20440;-78
2021/06/29 09:01:38;;;;;;;4.27;2.77;;;;;;;29.56;49.26;158987.03;4937617;29;20462;-78
2021/06/29 09:04:13;;;;;;;2.73;2.53;;;;;;;29.16;47.78;158880.69;4923334;29;20443;-78
2021/06/29 09:06:49;;;;;;;3.60;2.40;;;;;;;29.35;49.71;158931.94;4938547;29;20455;-78
2021/06/29 09:09:27;;;;;;;2.57;2.30;;;;;;;28.76;49.44;158778.41;4937775;29;20479;-77
2021/06/29 09:12:03;;;;;;;2.77;2.57;;;;;;;29.03;48.72;158846.59;4937318;29;20455;-77
2021/06/29 09:14:39;;;;;;;2.50;2.30;;;;;;;28.22;49.78;158636.75;4938209;29;20961;-77
2021/06/29 09:17:19;;;;;;;2.73;2.33;;;;;;;27.80;52.51;158529.16;4936858;29;20918;-77
2021/06/29 09:19:54;;;;;;;2.63;2.43;;;;;;;28.18;55.45;158626.22;4937520;29;20463;-77
2021/06/29 09:22:31;;;;;;;2.70;2.50;;;;;;;27.80;54.74;158527.84;4934973;29;20483;-77
2021/06/29 09:25:24;;;;;;;2.70;2.50;;;;;;;27.50;52.84;158450.56;4934594;29;20527;-77
2021/06/29 09:27:59;;;;;;;2.63;2.43;;;;;;;27.27;53.19;158388.94;4947252;28;20448;-77
2021/06/29 09:30:40;;;;;;;2.90;2.70;;;;;;;27.45;50.24;158437.47;4922714;29;20451;-77
2021/06/29 09:33:18;;;;;;;3.10;2.70;;;;;;;26.65;52.62;158227.72;4953764;28;20443;-77
2021/06/29 09:35:56;;;;;;;2.53;2.33;;;;;;;27.11;52.51;158348.31;4936362;29;20455;-77
2021/06/29 09:38:33;;;;;;;3.13;2.40;;;;;;;27.65;49.38;158489.88;4937043;29;20974;-77
2021/06/29 09:41:13;;;;;;;2.10;1.93;;;;;;;27.90;48.87;158552.78;4954283;29;20539;-77
2021/06/29 09:43:50;;;;;;;2.20;2.00;;;;;;;28.05;48.34;158592.16;4922199;29;20439;-77
2021/06/29 09:46:27;;;;;;;2.37;2.17;;;;;;;28.08;48.64;158601.34;4922788;29;20459;-77
2021/06/29 09:49:09;;;;;;;2.50;2.30;;;;;;;27.90;49.33;158552.78;4953918;29;20885;-77
2021/06/29 09:51:49;;;;;;;2.17;2.00;;;;;;;27.81;50.80;158530.50;4946619;29;20537;-77
2021/06/29 09:54:37;;;;;;;1.90;1.80;;;;;;;28.43;49.06;158690.50;4937401;29;20514;-77
2021/06/29 09:57:25;;;;;;;2.47;2.20;;;;;;;28.20;47.32;158631.47;4937534;29;20447;-77
2021/06/29 10:00:00;;;;;;;2.37;2.17;;;;;;;27.66;48.71;158491.19;4920450;29;20444;-77
2021/06/29 10:02:37;;;;;;;2.70;2.50;;;;;;;27.57;49.99;158468.91;4937147;29;20439;-77
2021/06/29 10:05:25;;;;;;;2.80;1.93;;;;;;;27.07;49.79;158337.81;4936403;29;20451;-77
2021/06/29 10:08:00;;;;;;;2.40;2.20;;;;;;;27.13;50.34;158353.53;4936468;29;20479;-77
2021/06/29 10:10:36;;;;;;;3.20;2.37;;;;;;;26.86;49.58;158282.78;4930285;29;20840;-77
2021/06/29 10:13:17;;;;;;;2.70;2.13;;;;;;;26.65;52.54;158227.72;4934171;29;20451;-77
2021/06/29 10:15:52;;;;;;;2.70;2.50;;;;;;;26.59;52.44;158214.63;4952225;29;20455;-77
2021/06/29 10:18:30;;;;;;;2.40;2.20;;;;;;;27.36;50.36;158413.81;4921789;29;20440;-77
2021/06/29 10:21:17;;;;;;;2.27;2.17;;;;;;;27.16;50.61;158361.41;4953356;29;20503;-77
2021/06/29 10:23:54;;;;;;;3.10;2.57;;;;;;;27.13;50.34;158353.53;4937120;29;20460;-77
2021/06/29 10:26:31;;;;;;;2.30;2.17;;;;;;;26.63;50.73;158222.50;4935883;29;20486;-77
2021/06/29 10:29:10;;;;;;;3.10;2.60;;;;;;;27.23;51.02;158378.41;4935561;29;20448;-77
2021/06/29 10:31:47;;;;;;;2.63;2.43;;;;;;;27.12;53.99;158350.91;4926723;29;20549;-76
2021/06/29 10:34:24;;;;;;;4.73;2.50;;;;;;;26.67;52.82;158232.94;4936455;29;20802;-77
2021/06/29 10:36:59;;;;;;;3.10;2.80;;;;;;;26.95;51.56;158307.66;4926248;29;20447;-77
2021/06/29 10:39:36;;;;;;;2.90;2.70;;;;;;;26.29;52.73;158134.75;4938518;29;20446;-77
2021/06/29 10:42:14;;;;;;;2.97;2.77;;;;;;;25.93;54.02;158043.03;4937427;29;20476;-77
2021/06/29 10:44:51;;;;;;;2.73;2.53;;;;;;;26.33;55.71;158146.53;4955260;29;20858;-77
2021/06/29 10:47:29;;;;;;;3.10;2.90;;;;;;;26.20;54.34;158111.16;4939898;29;20451;-76
2021/06/29 10:50:07;;;;;;;3.00;2.80;;;;;;;25.66;55.22;157971.00;4957970;29;20486;-76
2021/06/29 10:52:44;;;;;;;3.27;2.70;;;;;;;25.65;54.13;157968.44;4939711;29;20439;-76
2021/06/29 10:55:24;;;;;;;3.43;2.70;;;;;;;25.26;56.85;157867.56;4925301;29;20454;-77
2021/06/29 10:58:02;;;;;;;2.73;2.53;;;;;;;25.44;56.29;157916.00;4951161;28;20439;-77
2021/06/29 11:00:39;;;;;;;4.13;3.07;;;;;;;25.63;56.08;157964.47;4946639;29;20899;-76
2021/06/29 11:03:14;;;;;;;3.73;3.20;;;;;;;25.03;58.17;157808.69;4939355;29;20451;-76
2021/06/29 11:06:01;;;;;;;3.97;3.20;;;;;;;25.50;56.89;157929.13;4956556;29;20435;-76
2021/06/29 11:08:46;;;;;;;4.17;3.00;;;;;;;25.20;57.52;157853.22;4939252;29;20439;-76
2021/06/29 11:11:21;;;;;;;3.60;3.30;;;;;;;24.59;58.18;157693.53;4925482;29;20549;-87
2021/06/29 11:13:57;;;;;;;3.80;3.50;;;;;;;24.37;58.09;157635.97;4925239;29;20807;-87
2021/06/29 11:20:10;;;;;;;3.00;2.80;;;;;;;25.10;56.45;157825.75;5152324;27;20511;-87
2021/06/29 11:23:00;;;;;;;3.90;3.30;;;;;;;25.28;56.89;157874.09;5133699;27;20454;-87
2021/06/29 11:25:43;;;;;;;2.80;2.60;;;;;;;24.88;57.67;157768.16;5152111;27;21911;-87
2021/06/29 11:28:24;;;;;;;2.90;2.70;;;;;;;24.78;56.28;157743.25;5133756;27;20443;-87
2021/06/29 11:31:06;;;;;;;3.90;3.10;;;;;;;24.87;58.28;157765.50;5133348;27;20446;-87
2021/06/29 11:33:54;;;;;;;3.43;3.13;;;;;;;25.03;56.84;157808.69;5133842;27;20498;-87
2021/06/29 11:36:51;;;;;;;3.60;3.30;;;;;;;25.58;55.53;157951.38;5152065;27;20427;-87
2021/06/29 11:39:35;;;;;;;3.50;2.47;;;;;;;25.67;55.16;157974.97;5124747;28;20546;-87
2021/06/29 11:42:22;;;;;;;3.73;2.70;;;;;;;25.39;53.42;157902.91;5142169;27;20423;-87
2021/06/29 11:45:06;;;;;;;2.90;2.70;;;;;;;25.39;54.54;157902.91;5133426;27;20443;-87
2021/06/29 11:47:42;;;;;;;2.97;2.77;;;;;;;25.65;55.56;157969.75;5131110;27;20924;-86
2021/06/29 11:50:20;;;;;;;3.50;3.20;;;;;;;25.91;54.93;158036.50;5151403;27;20439;-85
2021/06/29 11:53:00;;;;;;;3.30;3.00;;;;;;;25.47;54.15;157921.31;5130319;27;20451;-85
2021/06/29 11:55:38;;;;;;;3.07;2.63;;;;;;;25.60;53.76;157955.34;5132681;27;20901;-85
2021/06/29 11:58:14;;;;;;;3.47;2.97;;;;;;;25.36;52.50;157893.78;5132226;27;20794;-85
2021/06/29 12:00:49;;;;;;;2.87;2.67;;;;;;;25.16;54.11;157842.72;5116794;27;20953;-85
2021/06/29 12:03:25;;;;;;;3.10;2.70;;;;;;;25.28;54.77;157874.09;5120719;28;20454;-87
2021/06/29 12:06:01;;;;;;;5.63;2.60;;;;;;;25.22;52.02;157858.44;5131768;27;20511;-87
2021/06/29 12:08:37;;;;;;;4.43;2.40;;;;;;;25.53;53.33;157938.31;5146468;27;20434;-85